sensor_id;sensor_type;location;lat;lon;timestamp;P1;durP1;ratioP1;P2;durP2;ratioP2
4174;SDS011;2101;48.290;14.382;2022-11-12T00:00:55;788.67;;;34.93;;
4174;SDS011;2101;48.290;14.382;2022-11-12T00:03:23;1030.40;;;47.17;;
4174;SDS011;2101;48.290;14.382;2022-11-12T00:05:49;774.73;;;37.57;;
4174;SDS011;2101;48.290;14.382;2022-11-12T00:08:15;665.77;;;34.03;;
4174;SDS011;2101;48.290;14.382;2022-11-12T00:10:42;986.10;;;46.40;;
4174;SDS011;2101;48.290;14.382;2022-11-12T00:13:08;787.73;;;37.27;;
4174;SDS011;2101;48.290;14.382;2022-11-12T00:15:34;983.93;;;45.93;;
4174;SDS011;2101;48.290;14.382;2022-11-12T00:18:00;837.03;;;43.03;;
4174;SDS011;2101;48.290;14.382;2022-11-12T00:20:26;644.50;;;32.73;;
4174;SDS011;2101;48.290;14.382;2022-11-12T00:22:53;683.13;;;32.80;;
4174;SDS011;2101;48.290;14.382;2022-11-12T00:25:19;248.93;;;19.10;;
4174;SDS011;2101;48.290;14.382;2022-11-12T00:27:45;687.50;;;32.83;;
4174;SDS011;2101;48.290;14.382;2022-11-12T00:30:11;818.40;;;44.00;;
4174;SDS011;2101;48.290;14.382;2022-11-12T00:32:37;798.77;;;35.10;;
4174;SDS011;2101;48.290;14.382;2022-11-12T00:35:04;592.57;;;26.90;;
4174;SDS011;2101;48.290;14.382;2022-11-12T00:37:30;499.83;;;22.67;;
4174;SDS011;2101;48.290;14.382;2022-11-12T00:39:56;395.10;;;21.00;;
4174;SDS011;2101;48.290;14.382;2022-11-12T00:42:22;441.67;;;24.03;;
4174;SDS011;2101;48.290;14.382;2022-11-12T00:44:48;330.40;;;18.77;;
4174;SDS011;2101;48.290;14.382;2022-11-12T00:47:15;406.93;;;19.93;;
4174;SDS011;2101;48.290;14.382;2022-11-12T00:49:41;339.97;;;18.03;;
4174;SDS011;2101;48.290;14.382;2022-11-12T00:52:07;289.57;;;18.47;;
4174;SDS011;2101;48.290;14.382;2022-11-12T00:54:33;420.47;;;19.03;;
4174;SDS011;2101;48.290;14.382;2022-11-12T00:56:59;387.70;;;18.50;;
4174;SDS011;2101;48.290;14.382;2022-11-12T00:59:25;379.27;;;18.30;;
4174;SDS011;2101;48.290;14.382;2022-11-12T01:01:52;450.87;;;24.10;;
4174;SDS011;2101;48.290;14.382;2022-11-12T01:04:18;354.27;;;20.40;;
4174;SDS011;2101;48.290;14.382;2022-11-12T01:06:44;695.27;;;31.53;;
4174;SDS011;2101;48.290;14.382;2022-11-12T01:09:10;328.73;;;15.30;;
4174;SDS011;2101;48.290;14.382;2022-11-12T01:11:36;279.80;;;17.30;;
4174;SDS011;2101;48.290;14.382;2022-11-12T01:14:06;458.97;;;19.87;;
4174;SDS011;2101;48.290;14.382;2022-11-12T01:16:36;321.70;;;18.80;;
4174;SDS011;2101;48.290;14.382;2022-11-12T01:19:03;778.20;;;31.23;;
4174;SDS011;2101;48.290;14.382;2022-11-12T01:21:30;522.27;;;24.23;;
4174;SDS011;2101;48.290;14.382;2022-11-12T01:23:57;429.73;;;19.50;;
4174;SDS011;2101;48.290;14.382;2022-11-12T01:26:24;412.73;;;21.57;;
4174;SDS011;2101;48.290;14.382;2022-11-12T01:28:52;564.20;;;25.90;;
4174;SDS011;2101;48.290;14.382;2022-11-12T01:31:20;965.20;;;44.43;;
4174;SDS011;2101;48.290;14.382;2022-11-12T01:33:48;1247.27;;;49.33;;
4174;SDS011;2101;48.290;14.382;2022-11-12T01:36:15;680.43;;;32.60;;
4174;SDS011;2101;48.290;14.382;2022-11-12T01:38:42;920.67;;;39.20;;
4174;SDS011;2101;48.290;14.382;2022-11-12T01:41:10;790.20;;;36.47;;
4174;SDS011;2101;48.290;14.382;2022-11-12T01:43:36;646.87;;;28.53;;
4174;SDS011;2101;48.290;14.382;2022-11-12T01:46:03;667.03;;;31.60;;
4174;SDS011;2101;48.290;14.382;2022-11-12T01:50:56;527.07;;;25.13;;
4174;SDS011;2101;48.290;14.382;2022-11-12T01:53:23;499.10;;;23.60;;
4174;SDS011;2101;48.290;14.382;2022-11-12T01:55:50;525.37;;;22.47;;
4174;SDS011;2101;48.290;14.382;2022-11-12T01:58:17;489.03;;;25.90;;
4174;SDS011;2101;48.290;14.382;2022-11-12T02:00:44;281.00;;;16.23;;
4174;SDS011;2101;48.290;14.382;2022-11-12T02:03:14;534.50;;;23.57;;
4174;SDS011;2101;48.290;14.382;2022-11-12T02:05:40;438.67;;;17.90;;
4174;SDS011;2101;48.290;14.382;2022-11-12T02:08:07;808.77;;;31.63;;
4174;SDS011;2101;48.290;14.382;2022-11-12T02:10:36;568.43;;;29.93;;
4174;SDS011;2101;48.290;14.382;2022-11-12T02:13:03;989.87;;;46.03;;
4174;SDS011;2101;48.290;14.382;2022-11-12T02:15:47;770.33;;;37.63;;
4174;SDS011;2101;48.290;14.382;2022-11-12T02:18:13;786.27;;;34.07;;
4174;SDS011;2101;48.290;14.382;2022-11-12T02:20:40;734.17;;;34.23;;
4174;SDS011;2101;48.290;14.382;2022-11-12T02:23:06;455.47;;;27.40;;
4174;SDS011;2101;48.290;14.382;2022-11-12T02:25:32;523.97;;;35.53;;
4174;SDS011;2101;48.290;14.382;2022-11-12T02:27:59;1015.80;;;48.93;;
4174;SDS011;2101;48.290;14.382;2022-11-12T02:30:33;683.33;;;32.17;;
4174;SDS011;2101;48.290;14.382;2022-11-12T02:32:59;1122.40;;;50.50;;
4174;SDS011;2101;48.290;14.382;2022-11-12T02:35:25;787.20;;;40.63;;
4174;SDS011;2101;48.290;14.382;2022-11-12T02:37:51;969.20;;;41.03;;
4174;SDS011;2101;48.290;14.382;2022-11-12T02:40:17;905.43;;;41.90;;
4174;SDS011;2101;48.290;14.382;2022-11-12T02:42:43;1072.77;;;47.47;;
4174;SDS011;2101;48.290;14.382;2022-11-12T02:45:09;988.30;;;49.07;;
4174;SDS011;2101;48.290;14.382;2022-11-12T02:47:36;515.90;;;34.70;;
4174;SDS011;2101;48.290;14.382;2022-11-12T02:50:02;729.67;;;32.87;;
4174;SDS011;2101;48.290;14.382;2022-11-12T02:52:28;634.73;;;29.70;;
4174;SDS011;2101;48.290;14.382;2022-11-12T02:54:56;434.20;;;28.57;;
4174;SDS011;2101;48.290;14.382;2022-11-12T02:57:22;627.37;;;31.43;;
4174;SDS011;2101;48.290;14.382;2022-11-12T02:59:48;829.00;;;42.03;;
4174;SDS011;2101;48.290;14.382;2022-11-12T03:02:15;715.80;;;38.10;;
4174;SDS011;2101;48.290;14.382;2022-11-12T03:04:41;768.87;;;41.20;;
4174;SDS011;2101;48.290;14.382;2022-11-12T03:07:07;883.17;;;45.83;;
4174;SDS011;2101;48.290;14.382;2022-11-12T03:09:33;427.50;;;27.37;;
4174;SDS011;2101;48.290;14.382;2022-11-12T03:11:59;572.30;;;34.40;;
4174;SDS011;2101;48.290;14.382;2022-11-12T03:14:25;578.60;;;33.37;;
4174;SDS011;2101;48.290;14.382;2022-11-12T03:16:51;816.27;;;39.47;;
4174;SDS011;2101;48.290;14.382;2022-11-12T03:19:17;392.30;;;22.33;;
4174;SDS011;2101;48.290;14.382;2022-11-12T03:21:43;625.33;;;30.50;;
4174;SDS011;2101;48.290;14.382;2022-11-12T03:24:10;611.03;;;28.97;;
4174;SDS011;2101;48.290;14.382;2022-11-12T03:26:36;554.53;;;30.37;;
4174;SDS011;2101;48.290;14.382;2022-11-12T03:29:02;459.93;;;27.60;;
4174;SDS011;2101;48.290;14.382;2022-11-12T03:31:28;532.67;;;29.80;;
4174;SDS011;2101;48.290;14.382;2022-11-12T03:33:54;534.07;;;24.07;;
4174;SDS011;2101;48.290;14.382;2022-11-12T03:36:20;542.30;;;28.20;;
4174;SDS011;2101;48.290;14.382;2022-11-12T03:38:46;549.50;;;29.20;;
4174;SDS011;2101;48.290;14.382;2022-11-12T03:41:12;588.30;;;29.93;;
4174;SDS011;2101;48.290;14.382;2022-11-12T03:43:39;552.17;;;26.37;;
4174;SDS011;2101;48.290;14.382;2022-11-12T03:46:05;390.30;;;21.43;;
4174;SDS011;2101;48.290;14.382;2022-11-12T03:48:31;445.90;;;27.53;;
4174;SDS011;2101;48.290;14.382;2022-11-12T03:50:57;354.33;;;24.80;;
4174;SDS011;2101;48.290;14.382;2022-11-12T03:53:24;600.30;;;27.70;;
4174;SDS011;2101;48.290;14.382;2022-11-12T03:55:50;564.20;;;25.40;;
4174;SDS011;2101;48.290;14.382;2022-11-12T03:58:16;516.57;;;26.90;;
4174;SDS011;2101;48.290;14.382;2022-11-12T04:00:42;730.83;;;36.60;;
4174;SDS011;2101;48.290;14.382;2022-11-12T04:03:08;636.63;;;34.33;;
4174;SDS011;2101;48.290;14.382;2022-11-12T04:05:35;363.07;;;25.50;;
4174;SDS011;2101;48.290;14.382;2022-11-12T04:08:20;534.50;;;28.80;;
4174;SDS011;2101;48.290;14.382;2022-11-12T04:11:09;546.37;;;30.00;;
4174;SDS011;2101;48.290;14.382;2022-11-12T04:13:37;456.27;;;24.50;;
4174;SDS011;2101;48.290;14.382;2022-11-12T04:16:07;547.47;;;27.50;;
4174;SDS011;2101;48.290;14.382;2022-11-12T04:18:53;365.17;;;24.20;;
4174;SDS011;2101;48.290;14.382;2022-11-12T04:21:39;490.07;;;27.97;;
4174;SDS011;2101;48.290;14.382;2022-11-12T04:24:19;514.00;;;24.87;;
4174;SDS011;2101;48.290;14.382;2022-11-12T04:27:05;535.97;;;27.10;;
4174;SDS011;2101;48.290;14.382;2022-11-12T04:29:31;385.00;;;21.60;;
4174;SDS011;2101;48.290;14.382;2022-11-12T04:32:16;351.37;;;23.27;;
4174;SDS011;2101;48.290;14.382;2022-11-12T04:34:42;513.47;;;21.97;;
4174;SDS011;2101;48.290;14.382;2022-11-12T04:37:08;552.60;;;27.67;;
4174;SDS011;2101;48.290;14.382;2022-11-12T04:39:34;466.10;;;19.70;;
4174;SDS011;2101;48.290;14.382;2022-11-12T04:42:00;369.47;;;24.67;;
4174;SDS011;2101;48.290;14.382;2022-11-12T04:44:45;497.23;;;28.50;;
4174;SDS011;2101;48.290;14.382;2022-11-12T04:47:39;386.17;;;25.27;;
4174;SDS011;2101;48.290;14.382;2022-11-12T04:50:12;1041.40;;;39.77;;
4174;SDS011;2101;48.290;14.382;2022-11-12T04:52:39;537.73;;;28.40;;
4174;SDS011;2101;48.290;14.382;2022-11-12T04:55:05;839.73;;;39.10;;
4174;SDS011;2101;48.290;14.382;2022-11-12T04:57:31;928.67;;;47.30;;
4174;SDS011;2101;48.290;14.382;2022-11-12T04:59:57;411.90;;;27.30;;
4174;SDS011;2101;48.290;14.382;2022-11-12T05:02:23;1260.50;;;55.10;;
4174;SDS011;2101;48.290;14.382;2022-11-12T05:04:50;949.97;;;40.37;;
4174;SDS011;2101;48.290;14.382;2022-11-12T05:07:16;707.67;;;33.27;;
4174;SDS011;2101;48.290;14.382;2022-11-12T05:09:42;571.60;;;27.93;;
4174;SDS011;2101;48.290;14.382;2022-11-12T05:12:08;528.77;;;27.90;;
4174;SDS011;2101;48.290;14.382;2022-11-12T05:14:34;622.83;;;31.50;;
4174;SDS011;2101;48.290;14.382;2022-11-12T05:17:00;389.87;;;24.00;;
4174;SDS011;2101;48.290;14.382;2022-11-12T05:19:27;565.83;;;30.37;;
4174;SDS011;2101;48.290;14.382;2022-11-12T05:21:53;716.33;;;32.53;;
4174;SDS011;2101;48.290;14.382;2022-11-12T05:24:32;398.13;;;20.60;;
4174;SDS011;2101;48.290;14.382;2022-11-12T05:26:58;488.90;;;25.83;;
4174;SDS011;2101;48.290;14.382;2022-11-12T05:29:24;579.23;;;29.27;;
4174;SDS011;2101;48.290;14.382;2022-11-12T05:31:50;351.73;;;20.17;;
4174;SDS011;2101;48.290;14.382;2022-11-12T05:34:16;751.97;;;37.10;;
4174;SDS011;2101;48.290;14.382;2022-11-12T05:36:42;592.10;;;24.70;;
4174;SDS011;2101;48.290;14.382;2022-11-12T05:39:08;719.40;;;33.57;;
4174;SDS011;2101;48.290;14.382;2022-11-12T05:41:34;436.97;;;19.87;;
4174;SDS011;2101;48.290;14.382;2022-11-12T05:44:00;308.87;;;15.70;;
4174;SDS011;2101;48.290;14.382;2022-11-12T05:46:26;798.23;;;33.50;;
4174;SDS011;2101;48.290;14.382;2022-11-12T05:48:53;594.17;;;26.97;;
4174;SDS011;2101;48.290;14.382;2022-11-12T05:51:19;762.87;;;33.33;;
4174;SDS011;2101;48.290;14.382;2022-11-12T05:53:45;589.53;;;29.73;;
4174;SDS011;2101;48.290;14.382;2022-11-12T05:56:11;403.33;;;18.90;;
4174;SDS011;2101;48.290;14.382;2022-11-12T05:58:37;356.43;;;19.47;;
4174;SDS011;2101;48.290;14.382;2022-11-12T06:01:03;426.97;;;25.17;;
4174;SDS011;2101;48.290;14.382;2022-11-12T06:03:29;405.50;;;21.43;;
4174;SDS011;2101;48.290;14.382;2022-11-12T06:05:55;366.10;;;20.47;;
4174;SDS011;2101;48.290;14.382;2022-11-12T06:08:21;390.93;;;20.87;;
4174;SDS011;2101;48.290;14.382;2022-11-12T06:10:48;482.50;;;23.57;;
4174;SDS011;2101;48.290;14.382;2022-11-12T06:13:14;401.87;;;19.23;;
4174;SDS011;2101;48.290;14.382;2022-11-12T06:15:40;350.60;;;19.07;;
4174;SDS011;2101;48.290;14.382;2022-11-12T06:18:06;263.10;;;17.10;;
4174;SDS011;2101;48.290;14.382;2022-11-12T06:20:32;191.07;;;13.67;;
4174;SDS011;2101;48.290;14.382;2022-11-12T06:22:59;191.93;;;14.30;;
4174;SDS011;2101;48.290;14.382;2022-11-12T06:25:25;234.97;;;15.67;;
4174;SDS011;2101;48.290;14.382;2022-11-12T06:27:51;544.33;;;27.83;;
4174;SDS011;2101;48.290;14.382;2022-11-12T06:30:17;268.73;;;16.93;;
4174;SDS011;2101;48.290;14.382;2022-11-12T06:32:47;438.50;;;20.73;;
4174;SDS011;2101;48.290;14.382;2022-11-12T06:35:13;549.40;;;26.23;;
4174;SDS011;2101;48.290;14.382;2022-11-12T06:37:39;293.77;;;15.20;;
4174;SDS011;2101;48.290;14.382;2022-11-12T06:40:06;229.43;;;12.50;;
4174;SDS011;2101;48.290;14.382;2022-11-12T06:42:32;566.20;;;20.27;;
4174;SDS011;2101;48.290;14.382;2022-11-12T06:44:58;217.47;;;13.20;;
4174;SDS011;2101;48.290;14.382;2022-11-12T06:47:24;309.33;;;17.00;;
4174;SDS011;2101;48.290;14.382;2022-11-12T06:49:51;501.83;;;20.20;;
4174;SDS011;2101;48.290;14.382;2022-11-12T06:52:17;447.40;;;19.63;;
4174;SDS011;2101;48.290;14.382;2022-11-12T06:54:43;572.97;;;21.50;;
4174;SDS011;2101;48.290;14.382;2022-11-12T06:57:09;244.97;;;15.60;;
4174;SDS011;2101;48.290;14.382;2022-11-12T06:59:35;300.57;;;14.83;;
4174;SDS011;2101;48.290;14.382;2022-11-12T07:02:01;532.73;;;23.87;;
4174;SDS011;2101;48.290;14.382;2022-11-12T07:04:28;400.10;;;18.63;;
4174;SDS011;2101;48.290;14.382;2022-11-12T07:06:54;81.00;;;11.17;;
4174;SDS011;2101;48.290;14.382;2022-11-12T07:09:20;370.60;;;22.50;;
4174;SDS011;2101;48.290;14.382;2022-11-12T07:11:46;315.53;;;18.03;;
4174;SDS011;2101;48.290;14.382;2022-11-12T07:14:12;465.13;;;26.53;;
4174;SDS011;2101;48.290;14.382;2022-11-12T07:16:39;494.37;;;27.23;;
4174;SDS011;2101;48.290;14.382;2022-11-12T07:19:05;478.17;;;27.03;;
4174;SDS011;2101;48.290;14.382;2022-11-12T07:21:31;644.37;;;35.47;;
4174;SDS011;2101;48.290;14.382;2022-11-12T07:23:57;619.77;;;25.90;;
4174;SDS011;2101;48.290;14.382;2022-11-12T07:26:26;492.43;;;25.83;;
4174;SDS011;2101;48.290;14.382;2022-11-12T07:28:52;364.67;;;18.73;;
4174;SDS011;2101;48.290;14.382;2022-11-12T07:31:22;551.70;;;26.27;;
4174;SDS011;2101;48.290;14.382;2022-11-12T07:33:50;516.83;;;23.37;;
4174;SDS011;2101;48.290;14.382;2022-11-12T07:36:17;449.27;;;23.53;;
4174;SDS011;2101;48.290;14.382;2022-11-12T07:38:43;435.60;;;22.90;;
4174;SDS011;2101;48.290;14.382;2022-11-12T07:41:13;697.07;;;30.60;;
4174;SDS011;2101;48.290;14.382;2022-11-12T07:43:41;603.57;;;26.07;;
4174;SDS011;2101;48.290;14.382;2022-11-12T07:46:10;668.93;;;32.57;;
4174;SDS011;2101;48.290;14.382;2022-11-12T07:48:36;1229.03;;;49.90;;
4174;SDS011;2101;48.290;14.382;2022-11-12T07:53:32;893.10;;;34.43;;
4174;SDS011;2101;48.290;14.382;2022-11-12T07:55:59;363.60;;;20.93;;
4174;SDS011;2101;48.290;14.382;2022-11-12T07:58:26;742.73;;;31.83;;
4174;SDS011;2101;48.290;14.382;2022-11-12T08:00:52;571.53;;;26.63;;
4174;SDS011;2101;48.290;14.382;2022-11-12T08:03:20;450.30;;;24.00;;
4174;SDS011;2101;48.290;14.382;2022-11-12T08:05:46;603.53;;;30.10;;
4174;SDS011;2101;48.290;14.382;2022-11-12T08:08:12;588.70;;;26.90;;
4174;SDS011;2101;48.290;14.382;2022-11-12T08:10:38;497.17;;;26.00;;
4174;SDS011;2101;48.290;14.382;2022-11-12T08:13:04;359.13;;;20.07;;
4174;SDS011;2101;48.290;14.382;2022-11-12T08:15:31;595.27;;;27.63;;
4174;SDS011;2101;48.290;14.382;2022-11-12T08:17:57;143.20;;;15.93;;
4174;SDS011;2101;48.290;14.382;2022-11-12T08:20:24;351.93;;;21.10;;
4174;SDS011;2101;48.290;14.382;2022-11-12T08:22:51;346.67;;;22.27;;
4174;SDS011;2101;48.290;14.382;2022-11-12T08:25:17;189.90;;;17.57;;
4174;SDS011;2101;48.290;14.382;2022-11-12T08:27:43;347.13;;;21.70;;
4174;SDS011;2101;48.290;14.382;2022-11-12T08:30:09;405.63;;;24.73;;
4174;SDS011;2101;48.290;14.382;2022-11-12T08:32:35;348.53;;;23.87;;
4174;SDS011;2101;48.290;14.382;2022-11-12T08:35:03;329.17;;;22.03;;
4174;SDS011;2101;48.290;14.382;2022-11-12T08:37:30;467.27;;;28.43;;
4174;SDS011;2101;48.290;14.382;2022-11-12T08:39:56;383.83;;;24.40;;
4174;SDS011;2101;48.290;14.382;2022-11-12T08:42:22;503.53;;;25.70;;
4174;SDS011;2101;48.290;14.382;2022-11-12T08:44:48;361.07;;;23.60;;
4174;SDS011;2101;48.290;14.382;2022-11-12T08:47:14;573.27;;;32.43;;
4174;SDS011;2101;48.290;14.382;2022-11-12T08:49:40;428.23;;;25.57;;
4174;SDS011;2101;48.290;14.382;2022-11-12T08:52:06;186.40;;;20.87;;
4174;SDS011;2101;48.290;14.382;2022-11-12T08:54:33;413.07;;;25.67;;
4174;SDS011;2101;48.290;14.382;2022-11-12T08:57:00;567.97;;;28.40;;
4174;SDS011;2101;48.290;14.382;2022-11-12T08:59:26;832.40;;;43.33;;
4174;SDS011;2101;48.290;14.382;2022-11-12T09:01:52;502.83;;;32.37;;
4174;SDS011;2101;48.290;14.382;2022-11-12T09:04:19;535.70;;;39.00;;
4174;SDS011;2101;48.290;14.382;2022-11-12T09:06:45;541.47;;;40.60;;
4174;SDS011;2101;48.290;14.382;2022-11-12T09:09:11;705.23;;;43.07;;
4174;SDS011;2101;48.290;14.382;2022-11-12T09:11:37;426.83;;;38.23;;
4174;SDS011;2101;48.290;14.382;2022-11-12T09:14:03;352.43;;;34.87;;
4174;SDS011;2101;48.290;14.382;2022-11-12T09:16:30;369.20;;;34.70;;
4174;SDS011;2101;48.290;14.382;2022-11-12T09:18:57;432.47;;;38.10;;
4174;SDS011;2101;48.290;14.382;2022-11-12T09:21:23;458.03;;;38.63;;
4174;SDS011;2101;48.290;14.382;2022-11-12T09:23:49;339.40;;;34.87;;
4174;SDS011;2101;48.290;14.382;2022-11-12T09:26:16;337.50;;;38.83;;
4174;SDS011;2101;48.290;14.382;2022-11-12T09:28:42;352.97;;;40.23;;
4174;SDS011;2101;48.290;14.382;2022-11-12T09:31:09;358.47;;;40.40;;
4174;SDS011;2101;48.290;14.382;2022-11-12T09:33:35;134.60;;;3.23;;
4174;SDS011;2101;48.290;14.382;2022-11-12T09:36:02;404.73;;;29.70;;
4174;SDS011;2101;48.290;14.382;2022-11-12T09:38:28;322.30;;;27.67;;
4174;SDS011;2101;48.290;14.382;2022-11-12T09:41:00;316.40;;;27.03;;
4174;SDS011;2101;48.290;14.382;2022-11-12T09:43:31;224.73;;;22.10;;
4174;SDS011;2101;48.290;14.382;2022-11-12T09:46:46;215.80;;;22.23;;
4174;SDS011;2101;48.290;14.382;2022-11-12T09:48:47;621.10;;;35.37;;
4174;SDS011;2101;48.290;14.382;2022-11-12T09:54:18;564.93;;;27.37;;
4174;SDS011;2101;48.290;14.382;2022-11-12T09:56:47;495.97;;;27.30;;
4174;SDS011;2101;48.290;14.382;2022-11-12T09:59:14;320.60;;;16.53;;
4174;SDS011;2101;48.290;14.382;2022-11-12T10:01:51;385.97;;;20.80;;
4174;SDS011;2101;48.290;14.382;2022-11-12T10:09:22;223.23;;;14.23;;
4174;SDS011;2101;48.290;14.382;2022-11-12T10:12:09;165.27;;;12.80;;
4174;SDS011;2101;48.290;14.382;2022-11-12T10:14:58;190.97;;;12.80;;
4174;SDS011;2101;48.290;14.382;2022-11-12T10:17:52;214.30;;;13.10;;
4174;SDS011;2101;48.290;14.382;2022-11-12T10:20:29;145.90;;;9.67;;
4174;SDS011;2101;48.290;14.382;2022-11-12T10:25:38;247.83;;;14.03;;
4174;SDS011;2101;48.290;14.382;2022-11-12T10:28:24;194.20;;;13.83;;
4174;SDS011;2101;48.290;14.382;2022-11-12T10:30:53;330.27;;;15.60;;
4174;SDS011;2101;48.290;14.382;2022-11-12T10:33:20;149.73;;;8.70;;
4174;SDS011;2101;48.290;14.382;2022-11-12T10:35:46;152.13;;;9.30;;
4174;SDS011;2101;48.290;14.382;2022-11-12T10:38:14;177.10;;;12.23;;
4174;SDS011;2101;48.290;14.382;2022-11-12T10:40:43;165.80;;;11.67;;
4174;SDS011;2101;48.290;14.382;2022-11-12T10:45:45;190.80;;;13.30;;
4174;SDS011;2101;48.290;14.382;2022-11-12T10:48:25;142.23;;;10.77;;
4174;SDS011;2101;48.290;14.382;2022-11-12T10:50:56;197.70;;;15.93;;
4174;SDS011;2101;48.290;14.382;2022-11-12T10:53:36;142.87;;;13.23;;
4174;SDS011;2101;48.290;14.382;2022-11-12T10:56:04;206.97;;;13.53;;
4174;SDS011;2101;48.290;14.382;2022-11-12T10:58:31;168.17;;;12.77;;
4174;SDS011;2101;48.290;14.382;2022-11-12T11:00:59;117.23;;;11.00;;
4174;SDS011;2101;48.290;14.382;2022-11-12T11:06:02;300.87;;;17.70;;
4174;SDS011;2101;48.290;14.382;2022-11-12T11:11:09;223.20;;;13.50;;
4174;SDS011;2101;48.290;14.382;2022-11-12T11:13:36;158.40;;;13.43;;
4174;SDS011;2101;48.290;14.382;2022-11-12T11:16:03;124.63;;;9.90;;
4174;SDS011;2101;48.290;14.382;2022-11-12T11:18:31;402.70;;;18.03;;
4174;SDS011;2101;48.290;14.382;2022-11-12T11:29:12;387.03;;;17.93;;
4174;SDS011;2101;48.290;14.382;2022-11-12T11:31:50;141.60;;;3.90;;
4174;SDS011;2101;48.290;14.382;2022-11-12T11:34:23;212.03;;;7.13;;
4174;SDS011;2101;48.290;14.382;2022-11-12T11:37:00;619.73;;;35.63;;
4174;SDS011;2101;48.290;14.382;2022-11-12T11:45:14;286.90;;;25.90;;
4174;SDS011;2101;48.290;14.382;2022-11-12T11:47:44;272.40;;;28.30;;
4174;SDS011;2101;48.290;14.382;2022-11-12T11:51:07;260.13;;;28.60;;
4174;SDS011;2101;48.290;14.382;2022-11-12T11:57:15;483.73;;;32.70;;
4174;SDS011;2101;48.290;14.382;2022-11-12T12:00:03;170.97;;;26.23;;
4174;SDS011;2101;48.290;14.382;2022-11-12T12:05:38;165.97;;;28.07;;
4174;SDS011;2101;48.290;14.382;2022-11-12T12:11:05;187.23;;;28.13;;
4174;SDS011;2101;48.290;14.382;2022-11-12T12:25:12;186.30;;;33.13;;
4174;SDS011;2101;48.290;14.382;2022-11-12T12:31:19;186.27;;;30.97;;
4174;SDS011;2101;48.290;14.382;2022-11-12T12:34:32;227.67;;;37.10;;
4174;SDS011;2101;48.290;14.382;2022-11-12T12:43:16;319.57;;;33.87;;
4174;SDS011;2101;48.290;14.382;2022-11-12T12:48:52;313.60;;;36.70;;
4174;SDS011;2101;48.290;14.382;2022-11-12T12:51:43;581.00;;;35.73;;
4174;SDS011;2101;48.290;14.382;2022-11-12T12:57:38;387.37;;;34.97;;
4174;SDS011;2101;48.290;14.382;2022-11-12T13:00:45;439.30;;;31.60;;
4174;SDS011;2101;48.290;14.382;2022-11-12T13:09:23;340.47;;;31.67;;
4174;SDS011;2101;48.290;14.382;2022-11-12T13:12:59;601.40;;;39.53;;
4174;SDS011;2101;48.290;14.382;2022-11-12T13:15:41;436.00;;;33.33;;
4174;SDS011;2101;48.290;14.382;2022-11-12T13:21:16;500.03;;;34.73;;
4174;SDS011;2101;48.290;14.382;2022-11-12T13:23:54;586.23;;;37.90;;
4174;SDS011;2101;48.290;14.382;2022-11-12T13:26:49;249.40;;;27.63;;
4174;SDS011;2101;48.290;14.382;2022-11-12T13:29:23;252.87;;;30.20;;
4174;SDS011;2101;48.290;14.382;2022-11-12T13:34:36;507.83;;;34.57;;
4174;SDS011;2101;48.290;14.382;2022-11-12T13:37:03;734.10;;;38.13;;
4174;SDS011;2101;48.290;14.382;2022-11-12T13:39:36;365.50;;;26.77;;
4174;SDS011;2101;48.290;14.382;2022-11-12T13:42:15;236.37;;;24.53;;
4174;SDS011;2101;48.290;14.382;2022-11-12T13:45:00;263.80;;;25.90;;
4174;SDS011;2101;48.290;14.382;2022-11-12T13:47:26;423.87;;;27.60;;
4174;SDS011;2101;48.290;14.382;2022-11-12T13:49:54;535.17;;;37.07;;
4174;SDS011;2101;48.290;14.382;2022-11-12T13:52:21;300.47;;;25.40;;
4174;SDS011;2101;48.290;14.382;2022-11-12T13:54:48;408.90;;;27.60;;
4174;SDS011;2101;48.290;14.382;2022-11-12T13:57:27;228.03;;;22.50;;
4174;SDS011;2101;48.290;14.382;2022-11-12T14:02:35;647.63;;;36.20;;
4174;SDS011;2101;48.290;14.382;2022-11-12T14:05:02;265.27;;;23.40;;
4174;SDS011;2101;48.290;14.382;2022-11-12T14:13:08;585.77;;;29.77;;
4174;SDS011;2101;48.290;14.382;2022-11-12T14:15:50;408.47;;;22.93;;
4174;SDS011;2101;48.290;14.382;2022-11-12T14:18:38;339.67;;;23.43;;
4174;SDS011;2101;48.290;14.382;2022-11-12T14:21:15;498.73;;;26.53;;
4174;SDS011;2101;48.290;14.382;2022-11-12T14:23:45;460.83;;;27.30;;
4174;SDS011;2101;48.290;14.382;2022-11-12T14:26:13;483.67;;;25.40;;
4174;SDS011;2101;48.290;14.382;2022-11-12T14:28:57;208.93;;;23.50;;
4174;SDS011;2101;48.290;14.382;2022-11-12T14:31:24;406.20;;;24.57;;
4174;SDS011;2101;48.290;14.382;2022-11-12T14:33:50;433.90;;;22.40;;
4174;SDS011;2101;48.290;14.382;2022-11-12T14:36:16;334.50;;;25.33;;
4174;SDS011;2101;48.290;14.382;2022-11-12T14:38:44;515.30;;;29.03;;
4174;SDS011;2101;48.290;14.382;2022-11-12T14:41:17;404.73;;;27.50;;
4174;SDS011;2101;48.290;14.382;2022-11-12T14:43:49;138.73;;;19.83;;
4174;SDS011;2101;48.290;14.382;2022-11-12T14:46:19;593.27;;;36.23;;
4174;SDS011;2101;48.290;14.382;2022-11-12T14:48:47;405.43;;;25.13;;
4174;SDS011;2101;48.290;14.382;2022-11-12T14:51:15;369.30;;;23.97;;
4174;SDS011;2101;48.290;14.382;2022-11-12T14:53:44;295.53;;;26.27;;
4174;SDS011;2101;48.290;14.382;2022-11-12T14:56:15;555.40;;;25.37;;
4174;SDS011;2101;48.290;14.382;2022-11-12T14:58:44;179.47;;;22.50;;
4174;SDS011;2101;48.290;14.382;2022-11-12T15:01:18;359.33;;;22.17;;
4174;SDS011;2101;48.290;14.382;2022-11-12T15:03:44;329.93;;;25.30;;
4174;SDS011;2101;48.290;14.382;2022-11-12T15:06:11;247.43;;;21.87;;
4174;SDS011;2101;48.290;14.382;2022-11-12T15:08:38;158.57;;;19.00;;
4174;SDS011;2101;48.290;14.382;2022-11-12T15:13:50;331.53;;;21.77;;
4174;SDS011;2101;48.290;14.382;2022-11-12T15:16:21;747.10;;;31.97;;
4174;SDS011;2101;48.290;14.382;2022-11-12T15:19:02;386.87;;;22.93;;
4174;SDS011;2101;48.290;14.382;2022-11-12T15:21:29;837.47;;;39.97;;
4174;SDS011;2101;48.290;14.382;2022-11-12T15:26:32;436.37;;;22.30;;
4174;SDS011;2101;48.290;14.382;2022-11-12T15:31:46;276.90;;;17.27;;
4174;SDS011;2101;48.290;14.382;2022-11-12T15:34:32;337.07;;;19.13;;
4174;SDS011;2101;48.290;14.382;2022-11-12T15:37:00;349.37;;;19.07;;
4174;SDS011;2101;48.290;14.382;2022-11-12T15:39:28;543.13;;;25.37;;
4174;SDS011;2101;48.290;14.382;2022-11-12T15:41:55;419.07;;;22.40;;
4174;SDS011;2101;48.290;14.382;2022-11-12T15:44:22;430.93;;;17.40;;
4174;SDS011;2101;48.290;14.382;2022-11-12T15:46:49;425.00;;;16.70;;
4174;SDS011;2101;48.290;14.382;2022-11-12T15:49:15;589.47;;;28.13;;
4174;SDS011;2101;48.290;14.382;2022-11-12T15:51:41;781.07;;;34.83;;
4174;SDS011;2101;48.290;14.382;2022-11-12T15:54:07;394.67;;;21.17;;
4174;SDS011;2101;48.290;14.382;2022-11-12T15:56:33;588.77;;;20.87;;
4174;SDS011;2101;48.290;14.382;2022-11-12T15:58:59;581.60;;;24.80;;
4174;SDS011;2101;48.290;14.382;2022-11-12T16:01:25;469.80;;;19.80;;
4174;SDS011;2101;48.290;14.382;2022-11-12T16:03:51;497.67;;;25.33;;
4174;SDS011;2101;48.290;14.382;2022-11-12T16:06:18;495.23;;;22.30;;
4174;SDS011;2101;48.290;14.382;2022-11-12T16:08:44;725.07;;;29.47;;
4174;SDS011;2101;48.290;14.382;2022-11-12T16:11:10;517.47;;;21.50;;
4174;SDS011;2101;48.290;14.382;2022-11-12T16:14:04;733.73;;;28.10;;
4174;SDS011;2101;48.290;14.382;2022-11-12T16:16:31;506.30;;;22.07;;